Time;durP1;ratioP1;P1;durP2;ratioP2;P2;SDS_P1;SDS_P2;PMS_P1;PMS_P2;Temp;Humidity;BMP_temperature;BMP_pressure;BME280_temperature;BME280_humidity;BME280_pressure;Samples;Min_cycle;Max_cycle;Signal;HPM_P1;HPM_P2
2021/03/01 00:01:51;;;;;;;36.88;16.17;;;;;;;2.29;100.00;103341.84;5249084;28;20400;-63
2021/03/01 00:04:21;;;;;;;37.83;16.42;;;;;;;2.21;100.00;103343.91;5241843;28;20027;-65
2021/03/01 00:06:52;;;;;;;44.95;16.67;;;;;;;2.20;100.00;103349.25;5258095;28;20032;-65
2021/03/01 00:09:22;;;;;;;36.60;15.90;;;;;;;2.15;100.00;103357.34;5263787;28;20081;-65
2021/03/01 00:11:53;;;;;;;40.85;16.33;;;;;;;2.13;100.00;103353.03;5244068;28;20048;-65
2021/03/01 00:14:23;;;;;;;37.45;17.50;;;;;;;2.03;100.00;103349.81;5241534;28;20047;-65
2021/03/01 00:16:54;;;;;;;38.53;17.13;;;;;;;1.95;100.00;103341.22;5234499;28;20516;-65
2021/03/01 00:19:24;;;;;;;33.70;15.18;;;;;;;1.93;100.00;103340.44;5242508;28;20374;-65
2021/03/01 00:21:55;;;;;;;40.53;15.20;;;;;;;1.86;100.00;103349.47;5242388;28;20183;-64
2021/03/01 00:24:25;;;;;;;37.03;15.73;;;;;;;1.78;100.00;103341.78;5242142;28;20020;-65
2021/03/01 00:26:56;;;;;;;41.45;16.55;;;;;;;1.68;100.00;103340.34;5242273;28;20150;-65
2021/03/01 00:29:26;;;;;;;47.40;17.52;;;;;;;1.62;100.00;103346.69;5242081;28;20024;-65
2021/03/01 00:31:57;;;;;;;45.55;17.63;;;;;;;1.64;100.00;103342.22;5232428;28;20445;-65
2021/03/01 00:34:27;;;;;;;46.17;18.10;;;;;;;1.60;100.00;103345.00;5236730;28;20048;-65
2021/03/01 00:36:58;;;;;;;43.97;19.38;;;;;;;1.55;100.00;103335.41;5242497;28;20104;-65
2021/03/01 00:39:28;;;;;;;48.53;20.05;;;;;;;1.53;100.00;103344.31;5241656;28;20085;-64
2021/03/01 00:42:00;;;;;;;45.47;18.35;;;;;;;1.50;100.00;103344.41;5242656;28;20504;-65
2021/03/01 00:44:31;;;;;;;41.72;18.33;;;;;;;1.45;100.00;103338.38;5259778;28;20103;-65
2021/03/01 00:47:01;;;;;;;44.60;19.33;;;;;;;1.43;100.00;103342.88;5263168;28;20213;-65
2021/03/01 00:49:32;;;;;;;53.97;19.33;;;;;;;1.40;100.00;103338.53;5263112;28;20365;-65
2021/03/01 00:52:02;;;;;;;47.03;18.42;;;;;;;1.39;100.00;103334.16;5248890;28;20052;-64
2021/03/01 00:54:33;;;;;;;51.97;19.80;;;;;;;1.35;100.00;103335.16;5262693;28;20038;-64
2021/03/01 00:57:04;;;;;;;52.33;20.67;;;;;;;1.29;100.00;103344.13;5262352;28;20020;-65
2021/03/01 00:59:34;;;;;;;50.63;19.95;;;;;;;1.31;100.00;103340.63;5245782;28;20024;-65
2021/03/01 01:02:05;;;;;;;54.55;20.80;;;;;;;1.32;100.00;103339.69;5244452;28;20039;-65
2021/03/01 01:04:35;;;;;;;48.47;19.65;;;;;;;1.23;100.00;103340.81;5244653;28;20391;-65
2021/03/01 01:07:06;;;;;;;51.60;19.40;;;;;;;1.17;100.00;103341.00;5249847;28;20034;-64
2021/03/01 01:09:36;;;;;;;52.10;22.20;;;;;;;1.18;100.00;103342.72;5255002;28;20036;-64
2021/03/01 01:12:07;;;;;;;51.75;21.33;;;;;;;1.33;100.00;103347.56;5251510;28;20034;-64
2021/03/01 01:14:37;;;;;;;61.85;24.42;;;;;;;1.52;100.00;103345.25;5252964;28;20020;-65
2021/03/01 01:17:08;;;;;;;63.10;25.95;;;;;;;1.47;100.00;103340.09;5235007;28;20595;-65
2021/03/01 01:19:38;;;;;;;70.38;25.63;;;;;;;1.40;100.00;103338.53;5245164;28;20024;-65
2021/03/01 01:22:09;;;;;;;63.03;24.58;;;;;;;1.38;100.00;103339.50;5245677;28;20111;-65
2021/03/01 01:24:39;;;;;;;64.07;25.60;;;;;;;1.29;100.00;103338.84;5244403;28;20739;-65
2021/03/01 01:27:10;;;;;;;63.75;24.05;;;;;;;1.20;100.00;103335.59;5245743;28;20021;-65
2021/03/01 01:29:40;;;;;;;66.93;24.45;;;;;;;1.15;100.00;103338.38;5261602;28;20020;-64
2021/03/01 01:32:11;;;;;;;63.20;25.60;;;;;;;1.14;100.00;103341.09;5242231;28;20079;-65
2021/03/01 01:34:41;;;;;;;62.15;24.67;;;;;;;1.06;100.00;103341.31;5241389;28;20020;-65
2021/03/01 01:37:11;;;;;;;60.33;25.00;;;;;;;0.97;100.00;103337.16;5245338;28;20035;-65
2021/03/01 01:39:42;;;;;;;69.35;26.27;;;;;;;0.91;100.00;103341.75;5244676;28;20052;-64
2021/03/01 01:42:12;;;;;;;75.50;26.92;;;;;;;0.87;100.00;103333.03;5244902;28;20029;-65
2021/03/01 01:44:43;;;;;;;61.60;25.30;;;;;;;0.78;100.00;103331.50;5251157;28;20058;-65
2021/03/01 01:47:13;;;;;;;68.40;26.25;;;;;;;0.65;100.00;103332.78;5265719;28;20028;-64
2021/03/01 01:49:44;;;;;;;75.43;27.15;;;;;;;0.55;100.00;103336.53;5257699;28;20055;-65
2021/03/01 01:52:15;;;;;;;72.43;26.30;;;;;;;0.45;100.00;103330.66;5258056;28;20123;-65
2021/03/01 01:54:45;;;;;;;71.95;25.95;;;;;;;0.42;100.00;103335.16;5243601;28;20801;-65
2021/03/01 01:57:16;;;;;;;75.28;28.58;;;;;;;0.44;100.00;103328.03;5244700;28;20031;-65
2021/03/01 01:59:47;;;;;;;71.53;26.20;;;;;;;0.44;100.00;103328.03;5245230;28;20021;-64
2021/03/01 02:02:18;;;;;;;65.90;25.38;;;;;;;0.43;100.00;103326.31;5244377;28;20393;-64
2021/03/01 02:04:52;;;;;;;69.63;25.88;;;;;;;0.42;100.00;103329.88;5244074;28;20021;-65
2021/03/01 02:08:01;;;;;;;78.90;27.77;;;;;;;0.34;100.00;103330.06;5264828;28;20028;-65
2021/03/01 02:10:48;;;;;;;72.15;28.63;;;;;;;0.31;100.00;103334.56;5262132;28;20020;-64
2021/03/01 02:13:42;;;;;;;85.15;29.17;;;;;;;0.26;100.00;103332.03;5261953;28;20118;-65
2021/03/01 02:16:18;;;;;;;77.05;27.58;;;;;;;0.23;100.00;103321.53;5235342;28;20021;-65
2021/03/01 02:18:48;;;;;;;80.05;27.55;;;;;;;0.25;100.00;103317.97;5231649;28;20031;-64
2021/03/01 02:21:19;;;;;;;75.30;26.35;;;;;;;0.25;100.00;103327.63;5244151;28;20025;-64
2021/03/01 02:23:50;;;;;;;86.72;29.67;;;;;;;0.28;100.00;103322.28;5243622;28;20028;-67
2021/03/01 02:26:32;;;;;;;75.15;26.10;;;;;;;0.24;100.00;103328.56;5242893;28;20031;-67
2021/03/01 02:29:11;;;;;;;78.55;29.45;;;;;;;0.23;100.00;103325.06;5244479;28;20028;-67
2021/03/01 02:31:45;;;;;;;87.32;30.52;;;;;;;0.21;100.00;103321.59;5236202;28;20079;-67
2021/03/01 02:34:18;;;;;;;82.05;28.85;;;;;;;0.23;100.00;103313.63;5236267;28;20035;-67
2021/03/01 02:36:54;;;;;;;91.25;32.35;;;;;;;0.19;100.00;103311.97;5252497;28;20063;-67
2021/03/01 02:39:29;;;;;;;90.13;30.73;;;;;;;0.18;100.00;103313.75;5265014;28;20084;-67
2021/03/01 02:42:01;;;;;;;96.75;32.78;;;;;;;0.20;100.00;103321.59;5265154;28;20103;-67
2021/03/01 02:44:36;;;;;;;92.55;32.15;;;;;;;0.21;100.00;103320.72;5249954;28;20024;-67
2021/03/01 02:47:07;;;;;;;99.20;32.13;;;;;;;0.14;100.00;103308.56;5264996;28;20016;-67
2021/03/01 02:49:42;;;;;;;100.13;32.03;;;;;;;0.14;100.00;103308.56;5264863;28;20016;-66
2021/03/01 02:52:16;;;;;;;103.60;34.92;;;;;;;0.16;100.00;103315.56;5249580;28;20033;-68
2021/03/01 02:54:48;;;;;;;112.68;36.83;;;;;;;0.17;100.00;103314.66;5252407;28;20077;-67
2021/03/01 02:57:22;;;;;;;101.93;35.17;;;;;;;0.23;100.00;103310.97;5264079;28;20027;-67
2021/03/01 02:59:56;;;;;;;92.93;34.05;;;;;;;0.24;100.00;103310.94;5265155;28;20040;-66
2021/03/01 03:02:28;;;;;;;115.47;37.17;;;;;;;0.19;100.00;103307.53;5250596;28;20031;-67
2021/03/01 03:05:00;;;;;;;98.95;34.22;;;;;;;0.16;100.00;103307.66;5264040;28;20078;-67
2021/03/01 03:07:32;;;;;;;109.55;36.05;;;;;;;0.10;100.00;103299.88;5263837;28;20035;-66
2021/03/01 03:10:05;;;;;;;109.05;35.83;;;;;;;0.03;100.00;103303.56;5260366;28;20021;-67
2021/03/01 03:12:39;;;;;;;119.68;36.40;;;;;;;0.00;100.00;103308.94;5243474;28;20495;-67
2021/03/01 03:15:15;;;;;;;93.85;35.30;;;;;;;0.04;100.00;103305.28;5259714;28;20036;-67
2021/03/01 03:17:48;;;;;;;108.78;36.65;;;;;;;0.03;100.00;103306.22;5233083;28;20441;-67
2021/03/01 03:20:19;;;;;;;113.35;37.97;;;;;;;-0.02;100.00;103313.38;5245642;28;20055;-67
2021/03/01 03:22:49;;;;;;;141.25;42.05;;;;;;;-0.01;100.00;103310.69;5262670;28;20531;-67
2021/03/01 03:25:20;;;;;;;130.45;43.35;;;;;;;0.00;100.00;103306.31;5264007;28;20036;-67
2021/03/01 03:27:50;;;;;;;121.30;42.08;;;;;;;0.02;100.00;103314.19;5264079;28;20063;-67
2021/03/01 03:30:21;;;;;;;127.68;41.80;;;;;;;0.01;100.00;103313.31;5263820;28;20020;-66
2021/03/01 03:32:53;;;;;;;141.18;44.83;;;;;;;-0.01;100.00;103307.19;5231013;28;20033;-66
2021/03/01 03:35:25;;;;;;;127.43;40.65;;;;;;;-0.05;100.00;103309.06;5242955;28;20032;-67
2021/03/01 03:38:04;;;;;;;134.65;43.28;;;;;;;-0.04;100.00;103302.00;5242832;28;20048;-67
2021/03/01 03:40:36;;;;;;;138.70;44.03;;;;;;;0.02;100.00;103304.47;5243140;28;20103;-67
2021/03/01 03:43:06;;;;;;;124.68;43.33;;;;;;;0.14;100.00;103306.78;5241740;28;20028;-67
2021/03/01 03:45:38;;;;;;;141.50;44.90;;;;;;;0.30;100.00;103307.25;5243603;28;20028;-67
2021/03/01 03:48:09;;;;;;;143.35;46.22;;;;;;;0.38;100.00;103300.03;5264165;28;20066;-66
2021/03/01 03:50:41;;;;;;;131.65;43.67;;;;;;;0.43;100.00;103299.91;5250893;28;20020;-64
2021/03/01 03:53:14;;;;;;;134.43;43.55;;;;;;;0.50;100.00;103298.81;5262713;28;20027;-64
2021/03/01 03:55:48;;;;;;;139.65;47.10;;;;;;;0.54;100.00;103307.53;5263405;28;20048;-64
2021/03/01 03:58:22;;;;;;;132.98;42.15;;;;;;;0.49;100.00;103305.00;5264155;28;20019;-64
2021/03/01 04:00:56;;;;;;;123.00;42.28;;;;;;;0.50;100.00;103306.75;5250089;28;20024;-65
2021/03/01 04:03:27;;;;;;;118.05;42.33;;;;;;;0.46;100.00;103313.03;5262892;28;20035;-64
2021/03/01 04:05:59;;;;;;;128.00;43.83;;;;;;;0.54;100.00;103311.03;5263399;28;20201;-64
2021/03/01 04:08:31;;;;;;;143.63;45.33;;;;;;;0.67;100.00;103311.59;5249844;28;20051;-64
2021/03/01 04:11:02;;;;;;;131.45;45.38;;;;;;;0.77;100.00;103316.56;5251539;28;20024;-64
2021/03/01 04:13:34;;;;;;;143.30;47.58;;;;;;;0.90;100.00;103305.63;5255401;28;20032;-64
2021/03/01 04:16:07;;;;;;;146.68;46.70;;;;;;;1.12;100.00;103316.47;5246544;28;20031;-64
2021/03/01 04:18:41;;;;;;;173.65;51.80;;;;;;;1.25;100.00;103312.53;5248355;28;20024;-64
2021/03/01 04:21:12;;;;;;;180.00;53.78;;;;;;;1.40;100.00;103317.38;5263298;28;20016;-64
2021/03/01 04:23:47;;;;;;;206.40;55.38;;;;;;;1.47;100.00;103307.50;5263385;28;20536;-64
2021/03/01 04:26:19;;;;;;;186.82;53.95;;;;;;;1.50;100.00;103312.66;5263207;28;20107;-63
2021/03/01 04:28:50;;;;;;;198.38;57.65;;;;;;;1.53;100.00;103302.00;5253006;28;20047;-64
2021/03/01 04:31:21;;;;;;;200.88;52.50;;;;;;;1.54;100.00;103304.59;5251390;28;20134;-65
2021/03/01 04:33:53;;;;;;;198.20;56.15;;;;;;;1.58;100.00;103301.84;5235238;28;20059;-65
2021/03/01 04:36:26;;;;;;;193.60;54.97;;;;;;;1.61;100.00;103299.09;5250573;28;20027;-65
2021/03/01 04:38:56;;;;;;;198.95;59.45;;;;;;;1.62;100.00;103307.00;5255568;28;20754;-64
2021/03/01 04:41:27;;;;;;;231.65;60.35;;;;;;;1.73;100.00;103304.88;5245579;28;20032;-65
2021/03/01 04:43:58;;;;;;;224.13;62.88;;;;;;;1.80;100.00;103303.75;5246028;28;20485;-65
2021/03/01 04:46:30;;;;;;;264.98;64.85;;;;;;;1.86;100.00;103309.75;5240473;28;20157;-64
2021/03/01 04:49:03;;;;;;;240.18;60.60;;;;;;;1.90;100.00;103309.59;5265569;28;20024;-65
2021/03/01 04:51:34;;;;;;;259.42;65.82;;;;;;;1.87;100.00;103309.72;5245659;28;20032;-65
2021/03/01 04:54:05;;;;;;;262.92;64.22;;;;;;;1.88;100.00;103308.81;5259249;28;20032;-65
2021/03/01 04:56:42;;;;;;;263.52;62.10;;;;;;;1.92;100.00;103307.81;5246259;28;20020;-65
2021/03/01 04:59:14;;;;;;;285.95;65.60;;;;;;;1.97;100.00;103305.88;5264980;28;20388;-65
2021/03/01 05:01:49;;;;;;;281.95;65.38;;;;;;;2.04;100.00;103309.16;5266848;28;20024;-64
2021/03/01 05:04:19;;;;;;;288.83;65.65;;;;;;;2.10;100.00;103308.09;5265738;28;20055;-65
2021/03/01 05:06:50;;;;;;;287.58;65.38;;;;;;;2.11;100.00;103308.06;5266584;28;20024;-65
2021/03/01 05:09:20;;;;;;;293.13;66.60;;;;;;;2.11;100.00;103310.72;5266955;28;20055;-64
2021/03/01 05:11:51;;;;;;;266.52;63.25;;;;;;;2.13;100.00;103308.88;5263692;28;20032;-65
2021/03/01 05:14:21;;;;;;;313.92;68.30;;;;;;;2.13;100.00;103303.56;5256411;28;20025;-65
2021/03/01 05:16:52;;;;;;;292.98;66.05;;;;;;;2.08;100.00;103306.38;5237547;28;20041;-65
2021/03/01 05:19:22;;;;;;;302.52;70.97;;;;;;;2.15;100.00;103301.72;5245740;28;20541;-65
2021/03/01 05:21:53;;;;;;;317.55;66.00;;;;;;;2.15;100.00;103314.09;5245512;28;20157;-65
2021/03/01 05:24:24;;;;;;;270.25;62.30;;;;;;;2.19;100.00;103306.00;5257765;28;20503;-64
2021/03/01 05:26:54;;;;;;;271.15;60.47;;;;;;;2.24;100.00;103309.34;5253000;28;20016;-64
2021/03/01 05:29:25;;;;;;;282.65;59.10;;;;;;;2.25;100.00;103304.91;5265895;28;20039;-65
2021/03/01 05:31:55;;;;;;;258.65;58.42;;;;;;;2.28;100.00;103313.66;5247069;28;20062;-65
2021/03/01 05:34:26;;;;;;;268.00;60.60;;;;;;;2.24;100.00;103314.66;5253125;28;20024;-65
2021/03/01 05:36:56;;;;;;;259.02;59.17;;;;;;;2.29;100.00;103306.56;5255048;28;20498;-65
2021/03/01 05:39:27;;;;;;;280.25;61.47;;;;;;;2.26;100.00;103307.53;5261861;28;20028;-65
2021/03/01 05:41:58;;;;;;;260.58;57.13;;;;;;;2.30;100.00;103317.09;5245526;28;20047;-65
2021/03/01 05:44:29;;;;;;;256.88;61.78;;;;;;;2.31;100.00;103317.97;5257793;28;20103;-65
2021/03/01 05:47:01;;;;;;;280.27;58.53;;;;;;;2.30;100.00;103316.22;5244942;28;20157;-65
2021/03/01 05:49:35;;;;;;;280.77;58.15;;;;;;;2.28;100.00;103324.25;5244860;28;20475;-65
2021/03/01 05:52:07;;;;;;;280.75;61.63;;;;;;;2.30;100.00;103311.78;5259080;28;20023;-65
2021/03/01 05:54:38;;;;;;;288.98;61.08;;;;;;;2.30;100.00;103314.44;5256395;28;20033;-63
2021/03/01 05:57:09;;;;;;;284.55;60.65;;;;;;;2.34;100.00;103321.38;5245428;28;21836;-65
2021/03/01 05:59:40;;;;;;;266.45;58.17;;;;;;;2.31;100.00;103324.16;5244960;28;20024;-65
2021/03/01 06:02:10;;;;;;;258.38;57.53;;;;;;;2.37;100.00;103328.38;5262266;28;20384;-65
2021/03/01 06:04:41;;;;;;;266.20;60.90;;;;;;;2.35;100.00;103335.47;5253016;28;20025;-65
2021/03/01 06:07:12;;;;;;;285.95;57.13;;;;;;;2.34;100.00;103331.09;5244922;28;20048;-65
2021/03/01 06:09:42;;;;;;;309.23;62.28;;;;;;;2.34;100.00;103329.31;5256553;28;20480;-64
2021/03/01 06:12:13;;;;;;;321.42;67.00;;;;;;;2.39;100.00;103328.31;5265120;28;20465;-64
2021/03/01 06:14:43;;;;;;;297.75;65.10;;;;;;;2.44;100.00;103331.66;5265113;28;20484;-67
2021/03/01 06:17:20;;;;;;;332.30;67.68;;;;;;;2.39;100.00;103329.16;5254914;28;20024;-67
2021/03/01 06:19:54;;;;;;;308.38;63.55;;;;;;;2.43;100.00;103329.94;5262882;28;20028;-67
2021/03/01 06:22:26;;;;;;;291.58;59.47;;;;;;;2.47;100.00;103334.22;5244412;28;20093;-67
2021/03/01 06:25:00;;;;;;;278.60;57.80;;;;;;;2.51;100.00;103338.47;5248061;28;20024;-67
2021/03/01 06:27:43;;;;;;;284.07;55.87;;;;;;;2.52;100.00;103334.91;5253132;28;20036;-67
2021/03/01 06:30:15;;;;;;;260.60;56.90;;;;;;;2.49;100.00;103349.13;5252184;28;20027;-67
2021/03/01 06:33:18;;;;;;;255.27;57.15;;;;;;;2.55;100.00;103343.59;5232725;28;20056;-67
2021/03/01 06:35:56;;;;;;;270.45;55.80;;;;;;;2.55;100.00;103353.34;5257158;28;20020;-67
2021/03/01 06:38:35;;;;;;;238.82;55.35;;;;;;;2.54;100.00;103343.66;5252564;28;20024;-67
2021/03/01 06:41:13;;;;;;;237.90;52.72;;;;;;;2.50;100.00;103344.69;5261386;28;20400;-67
2021/03/01 06:43:54;;;;;;;239.45;52.33;;;;;;;2.55;100.00;103351.56;5243484;28;20040;-67
2021/03/01 06:46:27;;;;;;;258.95;55.95;;;;;;;2.55;100.00;103348.91;5250790;28;20035;-67
2021/03/01 06:49:14;;;;;;;232.40;50.90;;;;;;;2.54;100.00;103347.19;5264519;28;20028;-67
2021/03/01 06:51:45;;;;;;;270.83;57.22;;;;;;;2.54;100.00;103347.19;5265032;28;20424;-67
2021/03/01 06:54:23;;;;;;;249.27;52.30;;;;;;;2.63;100.00;103347.78;5263950;28;20118;-67
2021/03/01 06:56:54;;;;;;;242.23;51.55;;;;;;;2.66;100.00;103350.31;5251127;28;20480;-68
2021/03/01 06:59:25;;;;;;;237.15;52.10;;;;;;;2.59;100.00;103353.19;5243369;28;20023;-67
2021/03/01 07:01:58;;;;;;;233.05;51.97;;;;;;;2.60;100.00;103351.41;5257774;28;20129;-69
2021/03/01 07:04:30;;;;;;;223.65;49.78;;;;;;;2.64;100.00;103358.31;5263970;28;20020;-65
2021/03/01 07:07:02;;;;;;;227.65;51.53;;;;;;;2.66;100.00;103352.97;5247179;28;20084;-65
2021/03/01 07:09:32;;;;;;;215.18;46.95;;;;;;;2.71;100.00;103343.97;5253914;28;20101;-65
2021/03/01 07:12:03;;;;;;;201.93;49.33;;;;;;;2.71;100.00;103351.00;5248190;28;20032;-65
2021/03/01 07:14:34;;;;;;;205.38;46.92;;;;;;;2.79;100.00;103341.88;5263635;28;20020;-64
2021/03/01 07:17:04;;;;;;;222.05;48.60;;;;;;;2.80;100.00;103345.41;5245148;28;20499;-66
2021/03/01 07:19:35;;;;;;;227.63;48.33;;;;;;;2.77;100.00;103354.34;5263752;28;20055;-67
2021/03/01 07:22:07;;;;;;;221.38;48.22;;;;;;;2.80;100.00;103356.84;5264573;28;20028;-67
2021/03/01 07:24:38;;;;;;;206.32;45.72;;;;;;;2.80;100.00;103350.69;5261884;28;20032;-66
2021/03/01 07:27:10;;;;;;;202.88;47.25;;;;;;;2.85;100.00;103349.59;5243735;28;20017;-67
2021/03/01 07:29:44;;;;;;;210.43;48.38;;;;;;;2.85;100.00;103346.94;5243239;28;20077;-66
2021/03/01 07:32:20;;;;;;;208.43;49.83;;;;;;;2.93;100.00;103349.34;5234288;28;20024;-67
2021/03/01 07:34:52;;;;;;;191.20;43.83;;;;;;;3.04;100.00;103346.28;5242476;28;20043;-67
2021/03/01 07:37:23;;;;;;;187.50;43.83;;;;;;;3.02;100.00;103351.66;5243112;28;20028;-66
2021/03/01 07:39:54;;;;;;;189.85;44.65;;;;;;;3.02;100.00;103349.00;5242777;28;20039;-67
2021/03/01 07:42:27;;;;;;;185.75;44.60;;;;;;;3.06;100.00;103357.69;5243620;28;20349;-67
2021/03/01 07:44:58;;;;;;;209.57;45.70;;;;;;;3.08;100.00;103354.09;5255175;28;20032;-66
2021/03/01 07:47:29;;;;;;;206.75;45.95;;;;;;;3.08;100.00;103353.22;5245619;28;20031;-67
2021/03/01 07:50:00;;;;;;;192.68;45.15;;;;;;;3.05;100.00;103354.19;5254437;28;20395;-66
2021/03/01 07:52:31;;;;;;;198.52;46.83;;;;;;;3.17;100.00;103362.63;5233593;28;20103;-67
2021/03/01 07:55:05;;;;;;;188.02;45.63;;;;;;;3.16;100.00;103356.44;5240581;28;20035;-67
2021/03/01 07:57:39;;;;;;;195.40;45.95;;;;;;;3.18;100.00;103359.91;5246341;28;20323;-67
2021/03/01 08:00:23;;;;;;;197.40;44.38;;;;;;;3.21;100.00;103350.97;5249182;28;20032;-67
2021/03/01 08:02:53;;;;;;;203.45;46.38;;;;;;;3.31;100.00;103352.34;5241146;28;20119;-67
2021/03/01 08:05:32;;;;;;;185.52;44.95;;;;;;;3.31;100.00;103355.88;5243481;28;20092;-66
2021/03/01 08:08:02;;;;;;;182.18;45.00;;;;;;;3.32;100.00;103354.09;5264283;28;20024;-66
2021/03/01 08:10:33;;;;;;;188.88;46.10;;;;;;;3.33;100.00;103363.78;5247592;28;20043;-67
2021/03/01 08:13:05;;;;;;;175.85;43.95;;;;;;;3.40;100.00;103357.31;5245283;28;20047;-66
2021/03/01 08:15:43;;;;;;;180.70;43.42;;;;;;;3.44;100.00;103363.38;5248447;28;20255;-67
2021/03/01 08:18:14;;;;;;;192.02;46.72;;;;;;;3.47;100.00;103357.97;5245208;28;20051;-67
2021/03/01 08:20:54;;;;;;;190.82;44.85;;;;;;;3.45;100.00;103362.44;5245826;28;20056;-67
2021/03/01 08:23:31;;;;;;;184.25;44.72;;;;;;;3.52;100.00;103363.97;5244791;28;20032;-67
2021/03/01 08:26:03;;;;;;;200.55;45.35;;;;;;;3.55;100.00;103364.69;5245016;28;20385;-67
2021/03/01 08:28:35;;;;;;;195.32;47.42;;;;;;;3.64;100.00;103364.31;5265383;28;20119;-67
2021/03/01 08:31:06;;;;;;;197.27;44.60;;;;;;;3.63;100.00;103365.25;5261927;28;20471;-67
2021/03/01 08:33:37;;;;;;;190.00;40.95;;;;;;;3.69;100.00;103358.84;5244736;28;20055;-67
2021/03/01 08:36:11;;;;;;;198.15;45.05;;;;;;;3.69;100.00;103356.19;5244939;28;20120;-67
2021/03/01 08:38:42;;;;;;;199.27;48.67;;;;;;;3.68;100.00;103364.22;5255889;28;20031;-66
2021/03/01 08:41:14;;;;;;;171.02;45.25;;;;;;;3.78;100.00;103366.44;5251449;28;20104;-67
2021/03/01 08:43:48;;;;;;;197.43;46.25;;;;;;;3.77;100.00;103359.41;5265974;28;20494;-66
2021/03/01 08:46:20;;;;;;;194.05;48.72;;;;;;;3.85;100.00;103362.59;5265505;28;20081;-67
2021/03/01 08:48:53;;;;;;;195.63;46.17;;;;;;;3.98;100.00;103363.00;5266019;28;20027;-67
2021/03/01 08:51:24;;;;;;;185.65;46.20;;;;;;;3.94;100.00;103365.84;5265903;28;20396;-67
2021/03/01 08:53:55;;;;;;;167.15;43.85;;;;;;;3.96;100.00;103362.16;5263316;28;20133;-67
2021/03/01 08:56:26;;;;;;;179.02;44.08;;;;;;;4.05;100.00;103363.59;5244437;28;20480;-66
2021/03/01 08:58:57;;;;;;;173.88;45.00;;;;;;;4.09;100.00;103354.59;5261950;28;20049;-67
2021/03/01 09:01:27;;;;;;;172.10;45.05;;;;;;;4.20;100.00;103357.66;5265587;28;20136;-67
2021/03/01 09:03:58;;;;;;;180.23;46.22;;;;;;;4.26;100.00;103346.75;5263523;28;20036;-65
2021/03/01 09:06:30;;;;;;;162.93;39.95;;;;;;;4.34;100.00;103347.31;5252985;28;20028;-67
2021/03/01 09:09:03;;;;;;;171.02;45.63;;;;;;;4.29;100.00;103344.00;5244794;28;20104;-67
2021/03/01 09:11:36;;;;;;;176.82;42.08;;;;;;;4.40;100.00;103355.03;5244041;28;20028;-67
2021/03/01 09:14:07;;;;;;;154.68;40.10;;;;;;;4.50;100.00;103351.97;5243064;28;20021;-67
2021/03/01 09:16:40;;;;;;;174.32;42.53;;;;;;;4.43;100.00;103347.88;5233502;28;20056;-67
2021/03/01 09:19:13;;;;;;;165.07;43.08;;;;;;;4.51;100.00;103349.25;5253709;28;20024;-67
2021/03/01 09:21:43;;;;;;;158.82;43.63;;;;;;;4.50;100.00;103355.50;5264924;28;20036;-67
2021/03/01 09:24:14;;;;;;;155.90;41.97;;;;;;;4.50;100.00;103349.31;5264852;28;20042;-66
2021/03/01 09:26:45;;;;;;;164.32;43.92;;;;;;;4.50;100.00;103357.28;5263912;28;20020;-67
2021/03/01 09:29:18;;;;;;;142.05;38.30;;;;;;;4.56;100.00;103354.38;5251735;28;20112;-67
2021/03/01 09:31:52;;;;;;;159.85;40.97;;;;;;;4.60;100.00;103353.31;5241140;28;20009;-67
2021/03/01 09:34:27;;;;;;;164.40;42.03;;;;;;;4.50;100.00;103358.16;5237526;28;20025;-67
2021/03/01 09:36:57;;;;;;;152.50;39.55;;;;;;;4.43;100.00;103354.03;5243006;28;20051;-67
2021/03/01 09:39:29;;;;;;;151.20;40.45;;;;;;;4.41;100.00;103354.09;5260805;28;20056;-66
2021/03/01 09:42:00;;;;;;;148.45;39.15;;;;;;;4.51;100.00;103346.59;5254172;28;20029;-67
2021/03/01 09:44:35;;;;;;;157.93;38.80;;;;;;;4.63;100.00;103345.22;5242908;28;20086;-67
2021/03/01 09:47:08;;;;;;;155.43;41.95;;;;;;;4.65;100.00;103343.34;5243599;28;20021;-66
2021/03/01 09:49:41;;;;;;;153.07;39.47;;;;;;;4.73;100.00;103341.22;5242732;28;20112;-66
2021/03/01 09:52:12;;;;;;;144.98;39.55;;;;;;;4.83;100.00;103342.53;5243283;28;20025;-67
2021/03/01 09:54:43;;;;;;;158.48;44.25;;;;;;;4.89;100.00;103336.06;5242589;28;20032;-67
2021/03/01 09:57:13;;;;;;;148.32;39.55;;;;;;;5.06;100.00;103332.66;5243272;28;20397;-66
2021/03/01 09:59:44;;;;;;;143.05;37.85;;;;;;;5.07;100.00;103334.38;5243113;28;20027;-67
2021/03/01 10:02:20;;;;;;;141.57;36.20;;;;;;;5.25;100.00;103336.19;5246490;28;20032;-67
2021/03/01 10:05:08;;;;;;;147.68;39.25;;;;;;;5.24;100.00;103331.81;5251885;28;20020;-67
2021/03/01 10:07:38;;;;;;;147.07;39.75;;;;;;;5.36;100.00;103325.03;5242786;28;20021;-67
2021/03/01 10:10:12;;;;;;;151.38;40.38;;;;;;;5.52;100.00;103327.84;5253261;28;20062;-67
2021/03/01 10:12:47;;;;;;;140.55;40.95;;;;;;;5.61;100.00;103325.59;5242612;28;20070;-67
2021/03/01 10:15:20;;;;;;;149.63;42.58;;;;;;;5.78;100.00;103323.94;5241270;28;20031;-66
2021/03/01 10:18:04;;;;;;;139.73;39.45;;;;;;;6.12;100.00;103315.16;5234328;28;20028;-68
2021/03/01 10:20:56;;;;;;;130.05;37.05;;;;;;;6.15;100.00;103318.53;5237505;28;20028;-68
2021/03/01 10:23:29;;;;;;;130.25;36.70;;;;;;;6.14;100.00;103316.81;5258585;28;20028;-67
2021/03/01 10:26:05;;;;;;;111.65;36.03;;;;;;;6.24;100.00;103325.22;5255222;28;20107;-67
2021/03/01 10:28:36;;;;;;;122.68;36.63;;;;;;;6.16;100.00;103322.06;5263553;28;20042;-66
2021/03/01 10:31:11;;;;;;;125.40;37.45;;;;;;;5.97;100.00;103323.00;5256247;28;20510;-67
2021/03/01 10:33:48;;;;;;;130.82;37.67;;;;;;;5.91;100.00;103320.63;5229269;28;20028;-66
2021/03/01 10:36:19;;;;;;;130.30;38.33;;;;;;;5.80;100.00;103317.59;5241713;28;20031;-67
2021/03/01 10:38:53;;;;;;;143.07;38.30;;;;;;;5.72;100.00;103317.09;5242968;28;20433;-66
2021/03/01 10:41:27;;;;;;;137.15;37.00;;;;;;;5.78;100.00;103318.63;5262105;28;20031;-66
2021/03/01 10:43:59;;;;;;;120.38;34.38;;;;;;;5.90;100.00;103313.53;5262372;28;20032;-67
2021/03/01 10:46:34;;;;;;;137.57;38.50;;;;;;;6.05;100.00;103308.41;5263042;28;20070;-67
2021/03/01 10:49:17;;;;;;;124.13;37.20;;;;;;;6.19;100.00;103305.94;5263223;28;20057;-67
2021/03/01 10:51:49;;;;;;;132.40;38.78;;;;;;;6.52;100.00;103311.31;5263466;28;20070;-66
2021/03/01 10:54:20;;;;;;;133.95;37.97;;;;;;;6.77;100.00;103305.56;5261576;28;20027;-66
2021/03/01 10:56:52;;;;;;;121.57;34.53;;;;;;;6.95;100.00;103309.91;5263091;28;20106;-67
2021/03/01 10:59:22;;;;;;;127.80;36.05;;;;;;;6.76;100.00;103306.50;5263233;28;20024;-67
2021/03/01 11:01:53;;;;;;;118.68;35.58;;;;;;;6.78;100.00;103299.28;5263147;28;20020;-67
2021/03/01 11:04:23;;;;;;;126.22;36.38;;;;;;;6.78;100.00;103306.41;5262435;28;20035;-66
2021/03/01 11:06:54;;;;;;;120.72;35.75;;;;;;;7.00;100.00;103305.19;5248486;28;20174;-67
2021/03/01 11:09:25;;;;;;;126.35;37.13;;;;;;;7.14;100.00;103299.09;5253841;28;20035;-67
2021/03/01 11:11:56;;;;;;;119.72;35.33;;;;;;;7.13;100.00;103297.38;5255634;28;20044;-66
2021/03/01 11:14:26;;;;;;;112.20;35.72;;;;;;;7.25;100.00;103299.38;5251844;28;20069;-66
2021/03/01 11:16:58;;;;;;;111.35;38.58;;;;;;;7.20;100.00;103297.91;5236122;28;20097;-67
2021/03/01 11:19:29;;;;;;;119.65;34.55;;;;;;;7.25;100.00;103301.19;5241890;28;20115;-67
2021/03/01 11:21:59;;;;;;;121.25;35.08;;;;;;;7.37;100.00;103303.16;5260967;28;20479;-67
2021/03/01 11:24:30;;;;;;;120.45;36.00;;;;;;;7.50;100.00;103293.53;5262692;28;20458;-67
2021/03/01 11:27:01;;;;;;;127.45;39.03;;;;;;;7.56;100.00;103288.78;5241931;28;20029;-66
2021/03/01 11:29:32;;;;;;;120.45;38.60;;;;;;;7.72;100.00;103282.47;5241159;28;20017;-66